createdAt,value
2022-12-01T00:01:20.515Z,73.34
2022-12-01T00:03:47.597Z,73.24
2022-12-01T00:06:18.312Z,73.25
2022-12-01T00:09:06.654Z,73.33
2022-12-01T00:11:35.328Z,73.54
2022-12-01T00:14:03.493Z,73.42
2022-12-01T00:16:31.259Z,73.45
2022-12-01T00:18:58.757Z,73.51
2022-12-01T00:21:27.012Z,73.34
2022-12-01T00:23:56.637Z,73.37
2022-12-01T00:26:26.027Z,73.35
2022-12-01T00:28:58.631Z,73.44
2022-12-01T00:31:26.612Z,73.19
2022-12-01T00:33:54.384Z,72.95
2022-12-01T00:36:22.243Z,73.38
2022-12-01T00:38:53.122Z,73.09
2022-12-01T00:41:21.243Z,73.15
2022-12-01T00:43:49.127Z,73.48
2022-12-01T00:46:17.122Z,73.28
2022-12-01T00:48:45.271Z,73.24
2022-12-01T00:51:12.510Z,73.20
2022-12-01T00:53:40.071Z,73.38
2022-12-01T00:56:07.790Z,73.20
2022-12-01T00:58:35.295Z,73.33
2022-12-01T01:04:20.635Z,73.15
2022-12-01T01:06:47.470Z,73.13
2022-12-01T01:09:15.710Z,72.96
2022-12-01T01:11:42.785Z,73.27
2022-12-01T01:14:09.871Z,73.37
2022-12-01T01:16:36.740Z,73.35
2022-12-01T01:19:04.047Z,73.78
2022-12-01T01:21:30.970Z,73.37
2022-12-01T01:23:57.945Z,73.16
2022-12-01T01:26:31.553Z,73.70
2022-12-01T01:29:01.007Z,73.38
2022-12-01T01:31:30.375Z,73.53
2022-12-01T01:33:58.436Z,73.39
2022-12-01T01:36:25.916Z,73.52
2022-12-01T01:38:53.551Z,73.25
2022-12-01T01:41:21.357Z,73.58
2022-12-01T01:43:50.951Z,73.35
2022-12-01T01:46:23.898Z,73.39
2022-12-01T01:49:02.085Z,73.45
2022-12-01T01:51:45.669Z,73.48
2022-12-01T01:54:22.337Z,73.57
2022-12-01T01:56:51.587Z,73.72
2022-12-01T01:59:33.144Z,73.62
2022-12-01T02:02:06.538Z,73.45
2022-12-01T02:04:36.057Z,73.45
2022-12-01T02:07:03.368Z,73.80
2022-12-01T02:09:30.306Z,73.34
2022-12-01T02:12:20.277Z,73.88
2022-12-01T02:14:56.326Z,73.75
2022-12-01T02:17:29.284Z,73.71
2022-12-01T02:20:34.444Z,73.75
2022-12-01T02:23:44.217Z,73.80
2022-12-01T02:26:16.999Z,73.76
2022-12-01T02:29:40.783Z,73.71
2022-12-01T02:32:48.525Z,73.73
2022-12-01T02:35:19.208Z,73.31
2022-12-01T02:37:56.256Z,73.51
2022-12-01T02:40:36.444Z,73.62
2022-12-01T02:43:23.039Z,73.46
2022-12-01T02:46:09.458Z,73.80
2022-12-01T02:48:40.020Z,73.55
2022-12-01T02:51:13.213Z,73.64
2022-12-01T02:53:40.020Z,73.50
2022-12-01T02:56:11.563Z,73.87
2022-12-01T02:58:38.420Z,73.58
2022-12-01T03:01:42.870Z,73.64
2022-12-01T03:04:28.627Z,73.82
2022-12-01T03:07:11.159Z,73.54
2022-12-01T03:10:17.619Z,73.82
2022-12-01T03:12:59.724Z,73.57
2022-12-01T03:15:31.607Z,73.34
2022-12-01T03:18:13.691Z,73.84
2022-12-01T03:20:56.787Z,73.86
2022-12-01T03:23:29.081Z,73.58
2022-12-01T03:25:59.307Z,73.66
2022-12-01T03:28:33.426Z,73.94
2022-12-01T03:31:04.056Z,73.74
2022-12-01T03:33:38.559Z,73.80
2022-12-01T03:36:29.163Z,73.65
2022-12-01T03:39:00.847Z,73.75
2022-12-01T03:41:34.063Z,73.82
2022-12-01T03:44:22.979Z,73.77
2022-12-01T03:46:57.376Z,74.20
2022-12-01T03:49:25.936Z,73.80
2022-12-01T03:52:11.018Z,74.01
2022-12-01T03:54:45.736Z,74.35
2022-12-01T03:57:19.348Z,74.26
2022-12-01T03:59:48.509Z,74.14
2022-12-01T04:02:16.661Z,74.35
2022-12-01T04:04:43.491Z,74.29
2022-12-01T04:07:14.756Z,74.55
2022-12-01T04:09:42.053Z,74.55
2022-12-01T04:12:33.535Z,74.08
2022-12-01T04:15:02.877Z,74.40
2022-12-01T04:17:30.248Z,74.59
2022-12-01T04:19:57.436Z,74.37
2022-12-01T04:22:24.646Z,74.33
2022-12-01T04:24:51.500Z,74.64
2022-12-01T04:27:18.688Z,74.57
2022-12-01T04:29:46.155Z,74.92
2022-12-01T04:32:13.674Z,74.76
2022-12-01T04:34:40.623Z,74.89
2022-12-01T04:37:08.342Z,74.70
2022-12-01T04:39:35.085Z,74.71
2022-12-01T04:42:03.211Z,74.62
2022-12-01T04:44:34.770Z,74.63
2022-12-01T04:47:02.959Z,74.95
2022-12-01T04:49:30.520Z,74.84
2022-12-01T04:51:57.483Z,74.77
2022-12-01T04:54:24.838Z,75.08
2022-12-01T04:56:51.628Z,74.89
2022-12-01T04:59:18.499Z,74.49
2022-12-01T05:01:47.021Z,74.58
2022-12-01T05:04:14.965Z,74.80
2022-12-01T05:06:42.539Z,74.98
2022-12-01T05:09:17.147Z,74.94
2022-12-01T05:11:45.016Z,74.81
2022-12-01T05:14:11.795Z,74.85
2022-12-01T05:16:38.907Z,74.89
2022-12-01T05:19:25.413Z,74.70
2022-12-01T05:21:52.775Z,74.79
2022-12-01T05:24:21.136Z,74.68
2022-12-01T05:26:48.048Z,74.62
2022-12-01T05:29:15.206Z,74.98
2022-12-01T05:31:42.387Z,74.78
2022-12-01T05:34:09.574Z,74.89
2022-12-01T05:36:36.706Z,74.52
2022-12-01T05:39:05.177Z,74.54
2022-12-01T05:41:32.159Z,74.59
2022-12-01T05:43:59.438Z,75.06
2022-12-01T05:46:26.522Z,74.95
2022-12-01T05:48:53.333Z,75.14
2022-12-01T05:51:20.281Z,75.19
2022-12-01T05:53:47.352Z,75.00
2022-12-01T05:56:14.199Z,74.91
2022-12-01T05:58:41.045Z,75.19
2022-12-01T06:01:08.228Z,75.02
2022-12-01T06:03:35.223Z,75.22
2022-12-01T06:06:02.499Z,75.19
2022-12-01T06:08:29.439Z,74.89
2022-12-01T06:10:56.290Z,74.89
2022-12-01T06:13:23.238Z,75.20
2022-12-01T06:16:03.477Z,75.12
2022-12-01T06:18:33.324Z,74.83
2022-12-01T06:21:00.467Z,75.05
2022-12-01T06:23:30.355Z,74.90
2022-12-01T06:25:58.125Z,75.13
2022-12-01T06:28:25.273Z,74.97
2022-12-01T06:30:52.006Z,74.83
2022-12-01T06:33:18.937Z,74.89
2022-12-01T06:35:45.832Z,75.13
2022-12-01T06:38:14.021Z,75.09
2022-12-01T06:40:40.991Z,75.00
2022-12-01T06:43:07.791Z,74.95
2022-12-01T06:45:34.609Z,75.00
2022-12-01T06:48:01.929Z,75.02
2022-12-01T06:50:28.648Z,74.90
2022-12-01T06:52:55.470Z,74.79
2022-12-01T06:55:25.622Z,74.74
2022-12-01T06:57:52.791Z,74.96
2022-12-01T07:00:20.230Z,74.97
2022-12-01T07:02:47.387Z,74.58
2022-12-01T07:05:14.648Z,74.64
2022-12-01T07:07:41.610Z,74.73
2022-12-01T07:10:10.062Z,74.86
2022-12-01T07:12:37.689Z,74.79
2022-12-01T07:15:08.953Z,74.84
2022-12-01T07:17:36.465Z,74.94
2022-12-01T07:20:04.305Z,74.80
2022-12-01T07:22:32.836Z,75.19
2022-12-01T07:24:59.966Z,74.74
2022-12-01T07:27:30.072Z,75.05
2022-12-01T07:29:56.836Z,75.35
2022-12-01T07:32:23.590Z,75.00
2022-12-01T07:34:50.439Z,75.02
2022-12-01T07:37:17.302Z,75.12
2022-12-01T07:39:44.149Z,75.10
2022-12-01T07:42:11.002Z,75.47
2022-12-01T07:44:37.772Z,75.31
2022-12-01T07:47:04.702Z,75.50
2022-12-01T07:49:31.520Z,75.35
2022-12-01T07:51:58.313Z,75.11
2022-12-01T07:54:25.838Z,75.28
2022-12-01T07:56:53.220Z,75.42
2022-12-01T07:59:20.144Z,75.07
2022-12-01T08:01:46.984Z,75.04
2022-12-01T08:04:14.335Z,75.26
2022-12-01T08:06:41.304Z,75.00
2022-12-01T08:09:08.303Z,75.13
2022-12-01T08:11:36.193Z,75.05
2022-12-01T08:14:03.005Z,74.92
2022-12-01T08:16:35.112Z,74.94
2022-12-01T08:37:41.336Z,74.23
2022-12-01T08:40:08.554Z,73.84
2022-12-01T08:42:35.194Z,74.06
2022-12-01T08:45:02.107Z,73.78
2022-12-01T08:47:29.239Z,73.81
2022-12-01T08:49:55.844Z,73.67
2022-12-01T08:52:22.508Z,73.29
2022-12-01T08:54:49.129Z,73.17
2022-12-01T08:57:15.668Z,73.18
2022-12-01T08:59:44.556Z,73.22
2022-12-01T09:02:15.807Z,73.21
2022-12-01T09:04:42.602Z,72.91
2022-12-01T09:07:11.910Z,73.07
2022-12-01T09:09:38.541Z,72.95
2022-12-01T09:12:05.392Z,72.46
2022-12-01T09:14:32.257Z,72.19
2022-12-01T09:16:58.899Z,72.21
2022-12-01T09:19:25.513Z,72.01
2022-12-01T09:21:53.028Z,71.62
2022-12-01T09:24:19.714Z,71.99
2022-12-01T09:26:46.419Z,71.48
2022-12-01T09:29:15.473Z,71.51
2022-12-01T09:31:42.813Z,71.36
2022-12-01T09:34:13.946Z,71.01
2022-12-01T09:36:40.905Z,70.90
2022-12-01T09:39:09.070Z,70.61
2022-12-01T09:41:37.863Z,70.22
2022-12-01T09:44:14.245Z,70.30
2022-12-01T09:46:55.551Z,70.06
2022-12-01T09:49:26.374Z,69.80
2022-12-01T09:51:54.765Z,69.41
2022-12-01T09:54:21.763Z,69.56
2022-12-01T09:56:53.292Z,69.06
2022-12-01T09:59:26.957Z,68.74
2022-12-01T10:02:06.978Z,68.25
2022-12-01T10:04:42.942Z,68.27
2022-12-01T10:07:21.581Z,67.77
2022-12-01T10:10:05.056Z,67.71
2022-12-01T10:12:34.929Z,67.40
2022-12-01T10:15:13.694Z,67.45
2022-12-01T10:17:58.713Z,66.97
2022-12-01T10:20:31.027Z,66.89
2022-12-01T10:23:15.308Z,66.65
2022-12-01T10:26:00.983Z,66.57
2022-12-01T10:28:47.313Z,66.49
2022-12-01T10:31:35.861Z,66.29
2022-12-01T10:34:12.531Z,66.15
2022-12-01T10:36:39.776Z,66.19
2022-12-01T10:39:07.363Z,65.96
2022-12-01T10:41:37.010Z,65.97
2022-12-01T10:44:05.948Z,65.55
2022-12-01T10:46:44.496Z,65.54
2022-12-01T10:49:13.948Z,65.52
2022-12-01T10:51:50.191Z,65.39
2022-12-01T10:54:17.295Z,65.25
2022-12-01T10:56:47.784Z,65.46
2022-12-01T10:59:29.883Z,65.24
2022-12-01T11:01:58.674Z,65.11
2022-12-01T11:04:46.556Z,65.09
2022-12-01T11:07:19.187Z,64.76
2022-12-01T11:09:48.945Z,64.69
2022-12-01T11:12:20.139Z,64.60
2022-12-01T11:14:50.547Z,64.42
2022-12-01T11:17:40.326Z,64.37
2022-12-01T11:20:38.633Z,64.31
2022-12-01T11:23:24.552Z,64.48
2022-12-01T11:26:03.565Z,64.33
2022-12-01T11:28:32.516Z,64.25
2022-12-01T11:31:06.361Z,64.21
2022-12-01T11:33:45.301Z,63.90
2022-12-01T11:36:25.576Z,63.86
2022-12-01T11:39:00.292Z,63.92
2022-12-01T11:41:35.927Z,63.65
2022-12-01T11:44:12.778Z,63.43
2022-12-01T11:46:55.803Z,63.45
2022-12-01T11:49:46.887Z,63.39
2022-12-01T11:52:24.076Z,63.23
2022-12-01T11:54:58.252Z,63.21
2022-12-01T11:57:34.335Z,63.41
2022-12-01T12:00:02.474Z,63.08
2022-12-01T12:02:49.155Z,63.10
2022-12-01T12:05:30.946Z,63.20
2022-12-01T12:08:12.516Z,63.12
2022-12-01T12:11:00.393Z,63.24
2022-12-01T12:13:50.252Z,63.01
2022-12-01T12:16:30.293Z,62.96
2022-12-01T12:19:13.906Z,62.93
2022-12-01T12:21:58.847Z,62.71
2022-12-01T12:25:05.627Z,62.68
2022-12-01T12:27:51.683Z,62.75
2022-12-01T12:30:28.184Z,62.39
2022-12-01T12:33:24.142Z,62.31
2022-12-01T12:36:06.086Z,62.35
2022-12-01T12:38:49.011Z,62.12
2022-12-01T12:41:46.110Z,61.99
2022-12-01T12:44:40.121Z,61.80
2022-12-01T12:47:32.931Z,61.94
2022-12-01T12:50:14.587Z,61.94
2022-12-01T12:52:45.782Z,61.85
2022-12-01T12:55:28.183Z,61.56
2022-12-01T12:58:07.966Z,61.35
2022-12-01T13:00:43.492Z,61.09
2022-12-01T13:03:15.709Z,61.00
2022-12-01T13:05:49.528Z,60.87
2022-12-01T13:08:51.743Z,60.91
2022-12-01T13:11:47.773Z,60.80
2022-12-01T13:14:20.404Z,60.61
2022-12-01T13:16:50.457Z,60.46
2022-12-01T13:19:24.622Z,60.35
2022-12-01T13:21:51.926Z,60.67
2022-12-01T13:24:24.187Z,60.46
2022-12-01T13:27:01.368Z,60.63
2022-12-01T13:29:37.506Z,60.43
2022-12-01T13:32:25.625Z,60.49
2022-12-01T13:34:52.528Z,60.67
2022-12-01T13:37:34.049Z,60.34
2022-12-01T13:40:21.911Z,60.50
2022-12-01T13:43:10.256Z,60.26
2022-12-01T13:45:40.231Z,60.18
2022-12-01T13:48:26.435Z,60.32
2022-12-01T13:50:53.152Z,60.39
2022-12-01T13:53:19.700Z,60.33
2022-12-01T13:56:02.955Z,60.22
2022-12-01T13:58:33.016Z,60.18
2022-12-01T14:01:22.475Z,60.13
2022-12-01T14:04:03.865Z,60.23
2022-12-01T14:06:41.158Z,60.18
2022-12-01T14:09:22.023Z,60.48
2022-12-01T14:12:02.320Z,60.52
2022-12-01T14:14:36.195Z,60.66
2022-12-01T14:17:04.021Z,60.44
2022-12-01T14:19:33.446Z,60.41
2022-12-01T14:22:05.579Z,60.71
2022-12-01T14:24:36.555Z,60.90
2022-12-01T14:27:08.239Z,61.12
2022-12-01T14:29:39.872Z,61.22
2022-12-01T14:32:09.600Z,61.42
2022-12-01T14:34:38.113Z,61.31
2022-12-01T14:37:11.237Z,61.71
2022-12-01T14:39:59.771Z,61.86
2022-12-01T14:42:58.242Z,62.03
2022-12-01T14:45:32.529Z,62.44
2022-12-01T14:48:05.148Z,62.33
2022-12-01T14:50:40.890Z,62.58
2022-12-01T14:53:25.860Z,62.67
2022-12-01T14:55:56.550Z,62.91
2022-12-01T14:58:31.430Z,63.07
2022-12-01T15:01:27.107Z,63.19
2022-12-01T15:03:58.202Z,63.42
2022-12-01T15:06:28.178Z,63.60
2022-12-01T15:09:34.178Z,63.49
2022-12-01T15:12:07.520Z,63.51
2022-12-01T15:14:46.476Z,63.36
2022-12-01T15:17:30.247Z,63.41
2022-12-01T15:19:57.722Z,63.62
2022-12-01T15:22:30.480Z,63.80
2022-12-01T15:25:13.676Z,63.68
2022-12-01T15:27:40.389Z,63.67
2022-12-01T15:30:13.220Z,63.96
2022-12-01T15:32:43.170Z,63.90
2022-12-01T15:35:22.668Z,63.90
2022-12-01T15:37:50.846Z,64.10
2022-12-01T15:43:23.874Z,64.12
2022-12-01T15:45:54.308Z,64.28
2022-12-01T15:48:35.148Z,64.33
2022-12-01T15:51:08.061Z,64.51
2022-12-01T15:53:38.551Z,64.64
2022-12-01T15:56:08.503Z,64.73
2022-12-01T15:58:41.689Z,64.95
2022-12-01T16:01:19.684Z,65.16
2022-12-01T16:03:54.570Z,65.63
2022-12-01T16:06:25.126Z,66.15
2022-12-01T16:08:57.890Z,66.04
2022-12-01T16:11:25.531Z,66.62
2022-12-01T16:14:21.778Z,66.88
2022-12-01T16:16:50.056Z,67.08
2022-12-01T16:19:16.652Z,67.45
2022-12-01T16:22:01.317Z,67.51
2022-12-01T16:24:33.438Z,67.80
2022-12-01T16:27:04.515Z,68.02
2022-12-01T16:29:53.962Z,67.99
2022-12-01T16:32:38.429Z,68.43
2022-12-01T16:35:24.833Z,68.42
2022-12-01T16:37:51.570Z,68.40
2022-12-01T16:40:18.667Z,68.62
2022-12-01T16:42:45.861Z,68.90
2022-12-01T16:45:14.954Z,68.85
2022-12-01T16:47:42.689Z,69.10
2022-12-01T16:50:17.913Z,69.40
2022-12-01T16:52:45.898Z,69.27
2022-12-01T16:55:26.166Z,69.55
2022-12-01T16:57:53.001Z,69.67
2022-12-01T17:00:20.553Z,69.83
2022-12-01T17:02:47.475Z,69.87
2022-12-01T17:05:14.238Z,70.06
2022-12-01T17:07:40.986Z,70.03
2022-12-01T17:10:08.505Z,70.17
2022-12-01T17:12:35.326Z,70.20
2022-12-01T17:15:02.530Z,70.10
2022-12-01T17:17:29.883Z,70.24
2022-12-01T17:19:56.473Z,70.43
2022-12-01T17:22:23.517Z,70.45
2022-12-01T17:24:50.770Z,70.57
2022-12-01T17:27:17.608Z,70.72
2022-12-01T17:29:46.370Z,70.80
2022-12-01T17:32:14.625Z,70.88
2022-12-01T17:34:41.274Z,70.93
2022-12-01T17:37:08.074Z,71.07
2022-12-01T17:39:34.793Z,71.01
2022-12-01T17:42:01.450Z,71.05
2022-12-01T17:44:28.334Z,71.18
2022-12-01T17:46:55.206Z,71.36
2022-12-01T17:49:22.018Z,71.38
2022-12-01T17:51:48.827Z,71.68
2022-12-01T17:54:15.460Z,71.67
2022-12-01T17:56:43.307Z,71.59
2022-12-01T17:59:09.926Z,71.77
2022-12-01T18:01:37.091Z,71.90
2022-12-01T18:04:03.902Z,72.16
2022-12-01T18:06:30.932Z,72.04
2022-12-01T18:09:00.074Z,72.06
2022-12-01T18:11:27.314Z,72.04
2022-12-01T18:13:54.176Z,72.23
2022-12-01T18:16:30.407Z,72.31
2022-12-01T18:18:58.538Z,72.10
2022-12-01T18:21:26.427Z,72.02
2022-12-01T18:23:58.813Z,72.31
2022-12-01T18:26:27.675Z,72.12
2022-12-01T18:28:56.160Z,72.31
2022-12-01T18:31:23.814Z,72.10
2022-12-01T18:33:50.906Z,72.31
2022-12-01T18:36:21.061Z,72.14
2022-12-01T18:38:48.907Z,72.41
2022-12-01T18:41:16.496Z,72.33
2022-12-01T18:43:43.728Z,72.20
2022-12-01T18:46:11.670Z,72.28
2022-12-01T18:48:38.710Z,72.44
2022-12-01T18:51:07.450Z,72.37
2022-12-01T18:53:34.656Z,72.35
2022-12-01T18:56:03.573Z,72.52
2022-12-01T18:58:30.742Z,72.43
2022-12-01T19:00:57.902Z,72.63
2022-12-01T19:03:24.629Z,72.66
2022-12-01T19:05:51.250Z,72.48
2022-12-01T19:08:18.083Z,72.49
2022-12-01T19:10:44.682Z,72.72
2022-12-01T19:13:11.878Z,72.84
2022-12-01T19:15:38.862Z,72.87
2022-12-01T19:18:05.565Z,72.65
2022-12-01T19:20:32.210Z,72.95
2022-12-01T19:22:59.275Z,72.76
2022-12-01T19:25:25.911Z,73.15
2022-12-01T19:27:53.216Z,73.00
2022-12-01T19:30:20.055Z,73.27
2022-12-01T19:32:47.003Z,73.17
2022-12-01T19:35:13.719Z,73.28
2022-12-01T19:37:40.394Z,73.27
2022-12-01T19:40:07.929Z,73.23
2022-12-01T19:42:34.481Z,73.41
2022-12-01T19:45:01.702Z,73.53
2022-12-01T19:47:32.192Z,73.44
2022-12-01T19:49:58.915Z,73.59
2022-12-01T19:52:25.649Z,73.54
2022-12-01T19:54:52.925Z,73.58
2022-12-01T19:57:19.818Z,73.45
2022-12-01T19:59:46.591Z,73.26
2022-12-01T20:02:13.498Z,73.63
2022-12-01T20:04:40.738Z,73.38
2022-12-01T20:07:07.756Z,73.40
2022-12-01T20:09:34.420Z,73.54
2022-12-01T20:12:01.004Z,73.64
2022-12-01T20:14:27.674Z,73.74
2022-12-01T20:16:55.635Z,73.63
2022-12-01T20:19:22.317Z,73.60
2022-12-01T20:21:49.695Z,73.69
2022-12-01T20:24:19.951Z,73.66
2022-12-01T20:26:51.089Z,73.56
2022-12-01T20:29:23.750Z,73.49
2022-12-01T20:31:52.688Z,73.57
2022-12-01T20:34:22.776Z,73.81
2022-12-01T20:36:49.552Z,73.55
2022-12-01T20:39:16.335Z,73.57
2022-12-01T20:41:43.950Z,73.81
2022-12-01T20:44:11.625Z,73.73
2022-12-01T20:46:41.112Z,73.95
2022-12-01T20:49:08.266Z,73.64
2022-12-01T20:51:35.174Z,73.73
2022-12-01T20:54:27.458Z,73.79
2022-12-01T20:56:50.870Z,73.91
2022-12-01T20:59:17.743Z,73.92
2022-12-01T21:01:44.413Z,73.53
2022-12-01T21:04:10.962Z,73.75
2022-12-01T21:06:37.614Z,73.69
2022-12-01T21:09:04.707Z,73.86
2022-12-01T21:11:55.436Z,73.88
2022-12-01T21:14:30.263Z,73.96
2022-12-01T21:17:01.592Z,73.95
2022-12-01T21:19:37.209Z,73.81
2022-12-01T21:22:12.059Z,73.75
2022-12-01T21:24:43.802Z,73.91
2022-12-01T21:27:16.608Z,73.92
2022-12-01T21:29:50.268Z,73.87
2022-12-01T21:32:32.448Z,74.16
2022-12-01T21:35:32.187Z,74.24
2022-12-01T21:38:04.379Z,74.22
2022-12-01T21:40:31.150Z,73.94
2022-12-01T21:43:11.324Z,74.13
2022-12-01T21:45:38.112Z,74.24
2022-12-01T21:48:18.966Z,73.99
2022-12-01T21:50:50.958Z,74.22
2022-12-01T21:53:20.150Z,74.36
2022-12-01T21:55:48.344Z,74.37
2022-12-01T21:58:30.847Z,74.18
2022-12-01T22:00:59.261Z,74.18
2022-12-01T22:03:32.697Z,74.45
2022-12-01T22:06:29.466Z,74.07
2022-12-01T22:09:01.445Z,74.20
2022-12-01T22:11:29.614Z,74.28
2022-12-01T22:14:15.633Z,74.34
2022-12-01T22:16:56.309Z,74.22
2022-12-01T22:19:28.267Z,74.35
2022-12-01T22:22:12.794Z,74.69
2022-12-01T22:24:39.989Z,74.21
2022-12-01T22:27:27.200Z,74.03
2022-12-01T22:30:00.357Z,74.10
2022-12-01T22:32:37.457Z,73.95
2022-12-01T22:35:10.275Z,74.26
2022-12-01T22:37:44.079Z,74.43
2022-12-01T22:40:34.943Z,74.45
2022-12-01T22:43:16.080Z,74.24
2022-12-01T22:45:48.037Z,74.40
2022-12-01T22:48:29.588Z,74.19
2022-12-01T22:51:14.918Z,74.38
2022-12-01T22:53:43.940Z,74.48
2022-12-01T22:56:21.638Z,74.41
2022-12-01T22:58:48.527Z,74.54
2022-12-01T23:01:22.181Z,74.72
2022-12-01T23:03:49.684Z,74.75
2022-12-01T23:06:56.214Z,74.64
2022-12-01T23:09:26.638Z,74.75
2022-12-01T23:11:59.632Z,75.00
2022-12-01T23:14:27.423Z,74.86
2022-12-01T23:17:07.345Z,74.85
2022-12-01T23:19:35.108Z,74.73
2022-12-01T23:22:02.107Z,74.67
2022-12-01T23:24:33.742Z,74.71
2022-12-01T23:27:00.859Z,74.45
2022-12-01T23:29:27.618Z,74.88
2022-12-01T23:31:54.335Z,74.93
2022-12-01T23:34:21.083Z,74.83
2022-12-01T23:36:50.158Z,74.78
2022-12-01T23:39:18.897Z,75.10
2022-12-01T23:41:50.665Z,74.95
2022-12-01T23:44:31.161Z,74.77
2022-12-01T23:46:59.063Z,74.76
2022-12-01T23:49:30.183Z,74.94
2022-12-01T23:52:00.587Z,75.21
2022-12-01T23:54:32.421Z,75.06
2022-12-01T23:57:02.826Z,74.88
2022-12-01T23:59:31.478Z,75.09
